sensor_id;sensor_type;location;lat;lon;timestamp;P1;durP1;ratioP1;P2;durP2;ratioP2
44098;SDS011;29762;50.086;14.364;2023-03-01T00:04:42;2.42;;;2.10;;
44098;SDS011;29762;50.086;14.364;2023-03-01T00:10:02;4.00;;;2.50;;
44098;SDS011;29762;50.086;14.364;2023-03-01T00:15:22;2.90;;;2.30;;
44098;SDS011;29762;50.086;14.364;2023-03-01T00:20:41;3.05;;;2.17;;
44098;SDS011;29762;50.086;14.364;2023-03-01T00:26:09;4.03;;;2.30;;
44098;SDS011;29762;50.086;14.364;2023-03-01T00:31:32;3.30;;;2.28;;
44098;SDS011;29762;50.086;14.364;2023-03-01T00:36:52;3.40;;;2.80;;
44098;SDS011;29762;50.086;14.364;2023-03-01T00:42:11;4.75;;;2.17;;
44098;SDS011;29762;50.086;14.364;2023-03-01T00:47:30;3.28;;;2.70;;
44098;SDS011;29762;50.086;14.364;2023-03-01T00:52:54;3.15;;;2.50;;
44098;SDS011;29762;50.086;14.364;2023-03-01T00:58:14;3.80;;;2.72;;
44098;SDS011;29762;50.086;14.364;2023-03-01T01:03:34;2.72;;;2.30;;
44098;SDS011;29762;50.086;14.364;2023-03-01T01:08:53;3.05;;;2.33;;
44098;SDS011;29762;50.086;14.364;2023-03-01T01:14:14;3.35;;;2.30;;
44098;SDS011;29762;50.086;14.364;2023-03-01T01:19:33;2.63;;;2.22;;
44098;SDS011;29762;50.086;14.364;2023-03-01T01:24:53;2.95;;;2.30;;
44098;SDS011;29762;50.086;14.364;2023-03-01T01:30:12;3.40;;;2.40;;
44098;SDS011;29762;50.086;14.364;2023-03-01T01:35:32;2.65;;;2.30;;
44098;SDS011;29762;50.086;14.364;2023-03-01T01:40:51;2.63;;;2.20;;
44098;SDS011;29762;50.086;14.364;2023-03-01T01:57:12;2.72;;;2.20;;
44098;SDS011;29762;50.086;14.364;2023-03-01T02:02:34;2.88;;;2.28;;
44098;SDS011;29762;50.086;14.364;2023-03-01T02:07:53;2.72;;;1.98;;
44098;SDS011;29762;50.086;14.364;2023-03-01T02:13:13;3.42;;;2.22;;
44098;SDS011;29762;50.086;14.364;2023-03-01T02:18:33;2.92;;;2.20;;
44098;SDS011;29762;50.086;14.364;2023-03-01T02:23:53;3.47;;;2.40;;
44098;SDS011;29762;50.086;14.364;2023-03-01T02:29:14;3.30;;;2.53;;
44098;SDS011;29762;50.086;14.364;2023-03-01T02:34:33;2.90;;;2.40;;
44098;SDS011;29762;50.086;14.364;2023-03-01T02:39:58;3.03;;;2.28;;
44098;SDS011;29762;50.086;14.364;2023-03-01T02:45:18;2.97;;;2.30;;
44098;SDS011;29762;50.086;14.364;2023-03-01T02:56:19;2.90;;;2.15;;
44098;SDS011;29762;50.086;14.364;2023-03-01T03:01:39;2.78;;;2.28;;
44098;SDS011;29762;50.086;14.364;2023-03-01T03:07:00;2.42;;;2.22;;
44098;SDS011;29762;50.086;14.364;2023-03-01T03:12:20;2.67;;;2.20;;
44098;SDS011;29762;50.086;14.364;2023-03-01T03:17:40;2.22;;;2.03;;
44098;SDS011;29762;50.086;14.364;2023-03-01T03:23:00;2.17;;;1.98;;
44098;SDS011;29762;50.086;14.364;2023-03-01T03:28:20;2.42;;;2.13;;
44098;SDS011;29762;50.086;14.364;2023-03-01T03:33:39;2.40;;;2.10;;
44098;SDS011;29762;50.086;14.364;2023-03-01T03:38:59;2.50;;;2.00;;
44098;SDS011;29762;50.086;14.364;2023-03-01T03:44:18;2.03;;;1.83;;
44098;SDS011;29762;50.086;14.364;2023-03-01T03:49:38;2.45;;;2.00;;
44098;SDS011;29762;50.086;14.364;2023-03-01T03:54:57;2.35;;;1.98;;
44098;SDS011;29762;50.086;14.364;2023-03-01T04:00:17;2.17;;;1.95;;
44098;SDS011;29762;50.086;14.364;2023-03-01T04:05:38;2.20;;;2.00;;
44098;SDS011;29762;50.086;14.364;2023-03-01T04:10:59;2.67;;;2.17;;
44098;SDS011;29762;50.086;14.364;2023-03-01T04:16:40;2.50;;;1.90;;
44098;SDS011;29762;50.086;14.364;2023-03-01T04:22:00;2.67;;;2.15;;
44098;SDS011;29762;50.086;14.364;2023-03-01T04:27:19;2.20;;;2.00;;
44098;SDS011;29762;50.086;14.364;2023-03-01T04:32:38;2.25;;;1.95;;
44098;SDS011;29762;50.086;14.364;2023-03-01T04:37:58;2.13;;;1.92;;
44098;SDS011;29762;50.086;14.364;2023-03-01T04:43:17;2.83;;;2.20;;
44098;SDS011;29762;50.086;14.364;2023-03-01T04:48:38;2.20;;;2.00;;
44098;SDS011;29762;50.086;14.364;2023-03-01T04:54:00;2.22;;;2.00;;
44098;SDS011;29762;50.086;14.364;2023-03-01T04:59:19;1.80;;;1.70;;
44098;SDS011;29762;50.086;14.364;2023-03-01T05:04:41;2.40;;;1.95;;
44098;SDS011;29762;50.086;14.364;2023-03-01T05:10:01;2.47;;;1.90;;
44098;SDS011;29762;50.086;14.364;2023-03-01T05:15:20;2.58;;;2.03;;
44098;SDS011;29762;50.086;14.364;2023-03-01T05:20:41;2.80;;;2.00;;
44098;SDS011;29762;50.086;14.364;2023-03-01T05:26:01;1.90;;;1.80;;
44098;SDS011;29762;50.086;14.364;2023-03-01T05:31:22;1.95;;;1.75;;
44098;SDS011;29762;50.086;14.364;2023-03-01T05:36:42;2.30;;;2.10;;
44098;SDS011;29762;50.086;14.364;2023-03-01T05:42:01;2.33;;;2.08;;
44098;SDS011;29762;50.086;14.364;2023-03-01T05:47:21;2.22;;;1.83;;
44098;SDS011;29762;50.086;14.364;2023-03-01T05:52:40;2.28;;;2.08;;
44098;SDS011;29762;50.086;14.364;2023-03-01T05:58:03;2.08;;;1.88;;
44098;SDS011;29762;50.086;14.364;2023-03-01T06:03:25;2.35;;;2.00;;
44098;SDS011;29762;50.086;14.364;2023-03-01T06:08:44;2.15;;;1.95;;
44098;SDS011;29762;50.086;14.364;2023-03-01T06:14:03;2.25;;;2.05;;
44098;SDS011;29762;50.086;14.364;2023-03-01T06:19:23;2.45;;;2.25;;
44098;SDS011;29762;50.086;14.364;2023-03-01T06:24:42;2.20;;;2.00;;
44098;SDS011;29762;50.086;14.364;2023-03-01T06:30:02;2.47;;;1.90;;
44098;SDS011;29762;50.086;14.364;2023-03-01T06:35:22;2.38;;;2.17;;
44098;SDS011;29762;50.086;14.364;2023-03-01T06:40:42;2.72;;;2.25;;
44098;SDS011;29762;50.086;14.364;2023-03-01T06:46:03;2.17;;;1.90;;
44098;SDS011;29762;50.086;14.364;2023-03-01T06:51:25;2.00;;;1.88;;
44098;SDS011;29762;50.086;14.364;2023-03-01T06:56:48;2.88;;;1.90;;
44098;SDS011;29762;50.086;14.364;2023-03-01T07:02:11;3.40;;;2.22;;
44098;SDS011;29762;50.086;14.364;2023-03-01T07:07:31;2.70;;;2.10;;
44098;SDS011;29762;50.086;14.364;2023-03-01T07:12:53;4.07;;;1.88;;
44098;SDS011;29762;50.086;14.364;2023-03-01T07:18:14;2.90;;;2.10;;
44098;SDS011;29762;50.086;14.364;2023-03-01T07:23:34;2.33;;;2.03;;
44098;SDS011;29762;50.086;14.364;2023-03-01T07:28:54;2.78;;;2.10;;
44098;SDS011;29762;50.086;14.364;2023-03-01T07:34:13;3.53;;;2.00;;
44098;SDS011;29762;50.086;14.364;2023-03-01T07:39:33;2.28;;;1.90;;
44098;SDS011;29762;50.086;14.364;2023-03-01T07:44:52;2.60;;;2.35;;
44098;SDS011;29762;50.086;14.364;2023-03-01T07:50:11;3.13;;;2.15;;
44098;SDS011;29762;50.086;14.364;2023-03-01T07:55:32;2.53;;;2.13;;
44098;SDS011;29762;50.086;14.364;2023-03-01T08:00:51;2.45;;;2.20;;
44098;SDS011;29762;50.086;14.364;2023-03-01T08:06:12;6.68;;;2.67;;
44098;SDS011;29762;50.086;14.364;2023-03-01T08:11:32;8.85;;;2.80;;
44098;SDS011;29762;50.086;14.364;2023-03-01T08:16:51;7.32;;;3.63;;
44098;SDS011;29762;50.086;14.364;2023-03-01T08:22:10;6.80;;;3.92;;
44098;SDS011;29762;50.086;14.364;2023-03-01T08:27:30;7.15;;;3.78;;
44098;SDS011;29762;50.086;14.364;2023-03-01T08:32:49;9.82;;;3.80;;
44098;SDS011;29762;50.086;14.364;2023-03-01T08:38:09;8.98;;;3.90;;
44098;SDS011;29762;50.086;14.364;2023-03-01T08:43:29;7.90;;;3.95;;
44098;SDS011;29762;50.086;14.364;2023-03-01T08:48:49;6.50;;;3.55;;
44098;SDS011;29762;50.086;14.364;2023-03-01T08:54:12;7.10;;;3.47;;
44098;SDS011;29762;50.086;14.364;2023-03-01T08:59:34;10.45;;;4.07;;
44098;SDS011;29762;50.086;14.364;2023-03-01T09:04:56;9.25;;;4.13;;
44098;SDS011;29762;50.086;14.364;2023-03-01T09:10:15;7.85;;;4.10;;
44098;SDS011;29762;50.086;14.364;2023-03-01T09:15:39;6.00;;;3.55;;
44098;SDS011;29762;50.086;14.364;2023-03-01T09:26:21;6.28;;;3.35;;
44098;SDS011;29762;50.086;14.364;2023-03-01T09:31:42;9.18;;;3.80;;
44098;SDS011;29762;50.086;14.364;2023-03-01T09:37:02;5.50;;;3.25;;
44098;SDS011;29762;50.086;14.364;2023-03-01T09:42:22;5.22;;;3.25;;
44098;SDS011;29762;50.086;14.364;2023-03-01T09:47:41;5.85;;;3.45;;
44098;SDS011;29762;50.086;14.364;2023-03-01T09:53:02;4.78;;;3.03;;
44098;SDS011;29762;50.086;14.364;2023-03-01T10:09:51;4.75;;;3.03;;
44098;SDS011;29762;50.086;14.364;2023-03-01T10:15:15;5.57;;;3.47;;
44098;SDS011;29762;50.086;14.364;2023-03-01T10:26:09;5.53;;;3.35;;
44098;SDS011;29762;50.086;14.364;2023-03-01T10:31:42;5.95;;;3.08;;
44098;SDS011;29762;50.086;14.364;2023-03-01T10:42:35;3.70;;;2.72;;
44098;SDS011;29762;50.086;14.364;2023-03-01T10:48:05;4.40;;;2.78;;
44098;SDS011;29762;50.086;14.364;2023-03-01T10:53:29;4.35;;;2.70;;
44098;SDS011;29762;50.086;14.364;2023-03-01T10:58:58;4.93;;;2.63;;
44098;SDS011;29762;50.086;14.364;2023-03-01T11:04:18;4.35;;;2.65;;
44098;SDS011;29762;50.086;14.364;2023-03-01T11:09:38;4.13;;;2.90;;
44098;SDS011;29762;50.086;14.364;2023-03-01T11:14:57;3.55;;;2.90;;
44098;SDS011;29762;50.086;14.364;2023-03-01T11:20:20;11.45;;;9.82;;
44098;SDS011;29762;50.086;14.364;2023-03-01T11:25:46;13.20;;;11.45;;
44098;SDS011;29762;50.086;14.364;2023-03-01T11:31:09;12.95;;;10.75;;
44098;SDS011;29762;50.086;14.364;2023-03-01T11:42:14;8.70;;;7.43;;
44098;SDS011;29762;50.086;14.364;2023-03-01T11:54:01;9.20;;;6.85;;
44098;SDS011;29762;50.086;14.364;2023-03-01T12:06:09;12.73;;;7.07;;
44098;SDS011;29762;50.086;14.364;2023-03-01T12:11:41;9.45;;;7.00;;
44098;SDS011;29762;50.086;14.364;2023-03-01T12:22:31;8.65;;;6.80;;
44098;SDS011;29762;50.086;14.364;2023-03-01T12:39:12;8.52;;;6.68;;
44098;SDS011;29762;50.086;14.364;2023-03-01T12:50:11;10.10;;;6.93;;
44098;SDS011;29762;50.086;14.364;2023-03-01T12:55:40;9.65;;;6.93;;
44098;SDS011;29762;50.086;14.364;2023-03-01T13:12:02;8.13;;;6.35;;
44098;SDS011;29762;50.086;14.364;2023-03-01T13:17:32;9.98;;;6.32;;
44098;SDS011;29762;50.086;14.364;2023-03-01T13:23:03;6.72;;;5.90;;
44098;SDS011;29762;50.086;14.364;2023-03-01T13:33:55;7.15;;;5.85;;
44098;SDS011;29762;50.086;14.364;2023-03-01T13:39:27;7.45;;;6.40;;
44098;SDS011;29762;50.086;14.364;2023-03-01T13:44:52;7.35;;;5.97;;
44098;SDS011;29762;50.086;14.364;2023-03-01T13:50:31;8.60;;;5.80;;
44098;SDS011;29762;50.086;14.364;2023-03-01T13:55:58;8.82;;;6.05;;
44098;SDS011;29762;50.086;14.364;2023-03-01T14:01:21;7.30;;;5.60;;
44098;SDS011;29762;50.086;14.364;2023-03-01T14:06:41;7.30;;;5.93;;
44098;SDS011;29762;50.086;14.364;2023-03-01T14:18:38;7.47;;;5.80;;
44098;SDS011;29762;50.086;14.364;2023-03-01T14:23:48;6.50;;;5.35;;
44098;SDS011;29762;50.086;14.364;2023-03-01T14:29:23;7.28;;;5.45;;
44098;SDS011;29762;50.086;14.364;2023-03-01T14:34:48;7.45;;;5.00;;
44098;SDS011;29762;50.086;14.364;2023-03-01T14:40:21;6.40;;;4.57;;
44098;SDS011;29762;50.086;14.364;2023-03-01T14:45:46;6.93;;;5.00;;
44098;SDS011;29762;50.086;14.364;2023-03-01T14:51:06;5.50;;;4.95;;
44098;SDS011;29762;50.086;14.364;2023-03-01T14:56:26;7.20;;;5.20;;
44098;SDS011;29762;50.086;14.364;2023-03-01T15:01:45;5.75;;;4.85;;
44098;SDS011;29762;50.086;14.364;2023-03-01T15:07:05;6.65;;;5.18;;
44098;SDS011;29762;50.086;14.364;2023-03-01T15:17:49;5.32;;;4.63;;
44098;SDS011;29762;50.086;14.364;2023-03-01T15:28:48;5.72;;;4.50;;
44098;SDS011;29762;50.086;14.364;2023-03-01T15:34:28;5.05;;;4.28;;
44098;SDS011;29762;50.086;14.364;2023-03-01T15:39:55;6.90;;;4.50;;
44098;SDS011;29762;50.086;14.364;2023-03-01T15:50:36;4.93;;;4.20;;
44098;SDS011;29762;50.086;14.364;2023-03-01T15:55:59;5.63;;;4.40;;
44098;SDS011;29762;50.086;14.364;2023-03-01T16:01:18;5.15;;;4.65;;
44098;SDS011;29762;50.086;14.364;2023-03-01T16:06:38;5.35;;;4.18;;
44098;SDS011;29762;50.086;14.364;2023-03-01T16:11:58;5.53;;;4.40;;
44098;SDS011;29762;50.086;14.364;2023-03-01T16:17:18;5.18;;;4.25;;
44098;SDS011;29762;50.086;14.364;2023-03-01T16:22:37;5.43;;;4.25;;
44098;SDS011;29762;50.086;14.364;2023-03-01T16:27:56;5.63;;;4.18;;
44098;SDS011;29762;50.086;14.364;2023-03-01T16:33:17;5.50;;;4.30;;
44098;SDS011;29762;50.086;14.364;2023-03-01T16:38:37;5.13;;;4.43;;
44098;SDS011;29762;50.086;14.364;2023-03-01T16:43:57;6.22;;;4.93;;
44098;SDS011;29762;50.086;14.364;2023-03-01T16:49:17;6.95;;;4.55;;
44098;SDS011;29762;50.086;14.364;2023-03-01T16:54:37;4.95;;;3.83;;
44098;SDS011;29762;50.086;14.364;2023-03-01T16:59:56;7.25;;;4.15;;
44098;SDS011;29762;50.086;14.364;2023-03-01T17:05:16;4.88;;;4.07;;
44098;SDS011;29762;50.086;14.364;2023-03-01T17:10:36;6.57;;;4.22;;
44098;SDS011;29762;50.086;14.364;2023-03-01T17:15:56;6.53;;;5.90;;
44098;SDS011;29762;50.086;14.364;2023-03-01T17:21:15;6.38;;;5.78;;
44098;SDS011;29762;50.086;14.364;2023-03-01T17:26:35;6.90;;;5.30;;
44098;SDS011;29762;50.086;14.364;2023-03-01T17:31:55;5.43;;;4.60;;
44098;SDS011;29762;50.086;14.364;2023-03-01T17:37:14;5.15;;;4.60;;
44098;SDS011;29762;50.086;14.364;2023-03-01T17:42:34;4.72;;;4.22;;
44098;SDS011;29762;50.086;14.364;2023-03-01T17:47:54;5.05;;;4.55;;
44098;SDS011;29762;50.086;14.364;2023-03-01T17:53:14;5.32;;;4.50;;
44098;SDS011;29762;50.086;14.364;2023-03-01T17:58:34;5.85;;;4.70;;
44098;SDS011;29762;50.086;14.364;2023-03-01T18:03:53;5.10;;;4.30;;
44098;SDS011;29762;50.086;14.364;2023-03-01T18:09:13;10.65;;;6.90;;
44098;SDS011;29762;50.086;14.364;2023-03-01T18:14:33;9.45;;;7.05;;
44098;SDS011;29762;50.086;14.364;2023-03-01T18:19:52;9.27;;;7.00;;
44098;SDS011;29762;50.086;14.364;2023-03-01T18:25:14;8.38;;;6.75;;
44098;SDS011;29762;50.086;14.364;2023-03-01T18:30:34;9.27;;;6.47;;
44098;SDS011;29762;50.086;14.364;2023-03-01T18:35:53;7.30;;;5.95;;
44098;SDS011;29762;50.086;14.364;2023-03-01T18:41:14;6.97;;;5.97;;
44098;SDS011;29762;50.086;14.364;2023-03-01T18:46:33;7.38;;;6.20;;
44098;SDS011;29762;50.086;14.364;2023-03-01T18:51:55;7.30;;;5.82;;
44098;SDS011;29762;50.086;14.364;2023-03-01T18:57:15;7.40;;;5.97;;
44098;SDS011;29762;50.086;14.364;2023-03-01T19:02:34;8.13;;;5.85;;
44098;SDS011;29762;50.086;14.364;2023-03-01T19:07:54;9.63;;;5.55;;
44098;SDS011;29762;50.086;14.364;2023-03-01T19:13:14;7.38;;;5.57;;
44098;SDS011;29762;50.086;14.364;2023-03-01T19:18:33;8.75;;;5.30;;
44098;SDS011;29762;50.086;14.364;2023-03-01T19:23:54;9.05;;;5.57;;
44098;SDS011;29762;50.086;14.364;2023-03-01T19:29:14;7.60;;;5.22;;
44098;SDS011;29762;50.086;14.364;2023-03-01T19:34:34;7.28;;;5.50;;
44098;SDS011;29762;50.086;14.364;2023-03-01T19:39:55;7.82;;;5.68;;
44098;SDS011;29762;50.086;14.364;2023-03-01T19:45:14;7.22;;;5.32;;
44098;SDS011;29762;50.086;14.364;2023-03-01T19:50:34;8.73;;;5.30;;
44098;SDS011;29762;50.086;14.364;2023-03-01T19:55:57;8.25;;;4.97;;
44098;SDS011;29762;50.086;14.364;2023-03-01T20:01:19;8.70;;;5.05;;
44098;SDS011;29762;50.086;14.364;2023-03-01T20:06:39;8.45;;;5.10;;
44098;SDS011;29762;50.086;14.364;2023-03-01T20:11:59;9.13;;;5.38;;
44098;SDS011;29762;50.086;14.364;2023-03-01T20:17:18;10.88;;;5.32;;
44098;SDS011;29762;50.086;14.364;2023-03-01T20:22:38;8.05;;;5.30;;
44098;SDS011;29762;50.086;14.364;2023-03-01T20:27:58;6.13;;;5.13;;
44098;SDS011;29762;50.086;14.364;2023-03-01T20:33:17;8.05;;;4.90;;
44098;SDS011;29762;50.086;14.364;2023-03-01T20:38:37;6.00;;;5.00;;
44098;SDS011;29762;50.086;14.364;2023-03-01T20:43:57;6.78;;;4.72;;
44098;SDS011;29762;50.086;14.364;2023-03-01T20:49:18;7.32;;;5.18;;
44098;SDS011;29762;50.086;14.364;2023-03-01T20:54:38;6.97;;;4.93;;
44098;SDS011;29762;50.086;14.364;2023-03-01T20:59:58;7.07;;;5.07;;
44098;SDS011;29762;50.086;14.364;2023-03-01T21:05:17;6.90;;;5.10;;
44098;SDS011;29762;50.086;14.364;2023-03-01T21:10:38;5.60;;;4.90;;
44098;SDS011;29762;50.086;14.364;2023-03-01T21:15:59;5.82;;;4.50;;
44098;SDS011;29762;50.086;14.364;2023-03-01T21:21:20;6.40;;;5.00;;
44098;SDS011;29762;50.086;14.364;2023-03-01T21:26:41;7.53;;;5.10;;
44098;SDS011;29762;50.086;14.364;2023-03-01T21:32:01;6.93;;;5.10;;
44098;SDS011;29762;50.086;14.364;2023-03-01T21:37:21;6.07;;;4.85;;
44098;SDS011;29762;50.086;14.364;2023-03-01T21:42:46;6.10;;;4.97;;
44098;SDS011;29762;50.086;14.364;2023-03-01T21:48:07;5.90;;;5.30;;
44098;SDS011;29762;50.086;14.364;2023-03-01T21:53:27;6.28;;;5.15;;
44098;SDS011;29762;50.086;14.364;2023-03-01T21:58:48;6.22;;;4.80;;
44098;SDS011;29762;50.086;14.364;2023-03-01T22:04:08;5.78;;;4.65;;
44098;SDS011;29762;50.086;14.364;2023-03-01T22:09:28;7.03;;;4.90;;
44098;SDS011;29762;50.086;14.364;2023-03-01T22:14:48;6.55;;;5.00;;
44098;SDS011;29762;50.086;14.364;2023-03-01T22:20:08;5.90;;;4.72;;
44098;SDS011;29762;50.086;14.364;2023-03-01T22:25:28;6.38;;;4.65;;
44098;SDS011;29762;50.086;14.364;2023-03-01T22:30:48;6.40;;;4.80;;
44098;SDS011;29762;50.086;14.364;2023-03-01T22:36:07;5.68;;;4.70;;
44098;SDS011;29762;50.086;14.364;2023-03-01T22:41:28;5.95;;;5.00;;
44098;SDS011;29762;50.086;14.364;2023-03-01T22:46:48;6.00;;;4.53;;
44098;SDS011;29762;50.086;14.364;2023-03-01T22:52:08;7.93;;;5.00;;
44098;SDS011;29762;50.086;14.364;2023-03-01T22:57:28;5.22;;;4.43;;
44098;SDS011;29762;50.086;14.364;2023-03-01T23:02:47;5.35;;;4.63;;
44098;SDS011;29762;50.086;14.364;2023-03-01T23:08:07;4.97;;;4.47;;
44098;SDS011;29762;50.086;14.364;2023-03-01T23:13:26;6.50;;;4.40;;
44098;SDS011;29762;50.086;14.364;2023-03-01T23:18:46;4.93;;;4.22;;
44098;SDS011;29762;50.086;14.364;2023-03-01T23:24:05;5.15;;;4.65;;
44098;SDS011;29762;50.086;14.364;2023-03-01T23:29:25;5.57;;;4.43;;
44098;SDS011;29762;50.086;14.364;2023-03-01T23:34:45;5.22;;;4.20;;
44098;SDS011;29762;50.086;14.364;2023-03-01T23:40:04;5.10;;;4.20;;
44098;SDS011;29762;50.086;14.364;2023-03-01T23:45:24;5.20;;;4.20;;
44098;SDS011;29762;50.086;14.364;2023-03-01T23:50:44;5.03;;;4.53;;
44098;SDS011;29762;50.086;14.364;2023-03-01T23:56:04;4.95;;;4.20;;
